sensor_id;sensor_type;location;lat;lon;timestamp;P1;durP1;ratioP1;P2;durP2;ratioP2
31270;SDS011;17904;47.420;9.310;2023-02-03T00:00:28;7.95;;;2.40;;
31270;SDS011;17904;47.420;9.310;2023-02-03T00:02:57;9.88;;;2.35;;
31270;SDS011;17904;47.420;9.310;2023-02-03T00:07:50;11.10;;;2.45;;
31270;SDS011;17904;47.420;9.310;2023-02-03T00:10:17;13.82;;;2.92;;
31270;SDS011;17904;47.420;9.310;2023-02-03T00:12:50;10.02;;;2.60;;
31270;SDS011;17904;47.420;9.310;2023-02-03T00:15:21;10.80;;;2.65;;
31270;SDS011;17904;47.420;9.310;2023-02-03T00:17:48;7.85;;;2.08;;
31270;SDS011;17904;47.420;9.310;2023-02-03T00:20:15;8.80;;;2.35;;
31270;SDS011;17904;47.420;9.310;2023-02-03T00:22:42;9.00;;;2.15;;
31270;SDS011;17904;47.420;9.310;2023-02-03T00:27:35;8.38;;;1.58;;
31270;SDS011;17904;47.420;9.310;2023-02-03T00:30:02;4.45;;;1.90;;
31270;SDS011;17904;47.420;9.310;2023-02-03T00:32:30;2.80;;;1.90;;
31270;SDS011;17904;47.420;9.310;2023-02-03T00:34:57;8.38;;;2.00;;
31270;SDS011;17904;47.420;9.310;2023-02-03T00:37:23;9.88;;;1.75;;
31270;SDS011;17904;47.420;9.310;2023-02-03T00:42:17;12.48;;;2.03;;
31270;SDS011;17904;47.420;9.310;2023-02-03T00:44:44;4.72;;;2.05;;
31270;SDS011;17904;47.420;9.310;2023-02-03T00:47:10;15.13;;;3.13;;
31270;SDS011;17904;47.420;9.310;2023-02-03T00:52:04;9.32;;;2.67;;
31270;SDS011;17904;47.420;9.310;2023-02-03T00:54:30;7.40;;;2.70;;
31270;SDS011;17904;47.420;9.310;2023-02-03T00:56:59;7.78;;;2.38;;
31270;SDS011;17904;47.420;9.310;2023-02-03T01:01:52;8.05;;;2.30;;
31270;SDS011;17904;47.420;9.310;2023-02-03T01:06:45;3.88;;;2.13;;
31270;SDS011;17904;47.420;9.310;2023-02-03T01:09:12;4.78;;;1.70;;
31270;SDS011;17904;47.420;9.310;2023-02-03T01:14:06;6.05;;;2.20;;
31270;SDS011;17904;47.420;9.310;2023-02-03T01:16:34;5.03;;;1.80;;
31270;SDS011;17904;47.420;9.310;2023-02-03T01:19:03;4.78;;;1.70;;
31270;SDS011;17904;47.420;9.310;2023-02-03T01:21:30;3.00;;;1.65;;
31270;SDS011;17904;47.420;9.310;2023-02-03T01:26:24;3.03;;;1.45;;
31270;SDS011;17904;47.420;9.310;2023-02-03T01:28:52;6.22;;;2.83;;
31270;SDS011;17904;47.420;9.310;2023-02-03T01:31:25;8.55;;;1.85;;
31270;SDS011;17904;47.420;9.310;2023-02-03T01:33:54;6.40;;;1.80;;
31270;SDS011;17904;47.420;9.310;2023-02-03T01:36:22;4.63;;;1.60;;
31270;SDS011;17904;47.420;9.310;2023-02-03T01:38:50;5.30;;;1.73;;
31270;SDS011;17904;47.420;9.310;2023-02-03T01:43:46;4.60;;;1.52;;
31270;SDS011;17904;47.420;9.310;2023-02-03T01:46:23;8.27;;;1.80;;
31270;SDS011;17904;47.420;9.310;2023-02-03T01:48:51;7.00;;;2.35;;
31270;SDS011;17904;47.420;9.310;2023-02-03T01:51:22;5.25;;;2.00;;
31270;SDS011;17904;47.420;9.310;2023-02-03T01:53:51;4.32;;;1.95;;
31270;SDS011;17904;47.420;9.310;2023-02-03T01:56:19;6.65;;;2.28;;
31270;SDS011;17904;47.420;9.310;2023-02-03T01:58:47;7.35;;;2.95;;
31270;SDS011;17904;47.420;9.310;2023-02-03T02:01:15;4.82;;;2.25;;
31270;SDS011;17904;47.420;9.310;2023-02-03T02:03:48;3.92;;;1.63;;
31270;SDS011;17904;47.420;9.310;2023-02-03T02:06:21;8.25;;;3.22;;
31270;SDS011;17904;47.420;9.310;2023-02-03T02:11:16;10.88;;;2.40;;
31270;SDS011;17904;47.420;9.310;2023-02-03T02:13:45;5.43;;;2.17;;
31270;SDS011;17904;47.420;9.310;2023-02-03T02:27:36;7.65;;;2.40;;
31270;SDS011;17904;47.420;9.310;2023-02-03T02:33:07;6.65;;;2.05;;
31270;SDS011;17904;47.420;9.310;2023-02-03T02:38:14;5.72;;;1.83;;
31270;SDS011;17904;47.420;9.310;2023-02-03T02:43:40;3.47;;;2.00;;
31270;SDS011;17904;47.420;9.310;2023-02-03T02:46:18;5.15;;;1.98;;
31270;SDS011;17904;47.420;9.310;2023-02-03T02:49:28;6.05;;;1.48;;
31270;SDS011;17904;47.420;9.310;2023-02-03T02:51:53;9.40;;;2.28;;
31270;SDS011;17904;47.420;9.310;2023-02-03T02:54:23;9.77;;;2.83;;
31270;SDS011;17904;47.420;9.310;2023-02-03T02:56:52;4.47;;;2.08;;
31270;SDS011;17904;47.420;9.310;2023-02-03T02:59:23;8.23;;;2.15;;
31270;SDS011;17904;47.420;9.310;2023-02-03T03:01:50;5.55;;;1.85;;
31270;SDS011;17904;47.420;9.310;2023-02-03T03:04:18;6.57;;;2.00;;
31270;SDS011;17904;47.420;9.310;2023-02-03T03:06:58;6.63;;;2.20;;
31270;SDS011;17904;47.420;9.310;2023-02-03T03:09:30;8.45;;;2.38;;
31270;SDS011;17904;47.420;9.310;2023-02-03T03:12:09;9.50;;;2.33;;
31270;SDS011;17904;47.420;9.310;2023-02-03T03:14:41;8.68;;;3.10;;
31270;SDS011;17904;47.420;9.310;2023-02-03T03:17:30;9.90;;;2.60;;
31270;SDS011;17904;47.420;9.310;2023-02-03T03:20:04;10.32;;;2.28;;
31270;SDS011;17904;47.420;9.310;2023-02-03T03:22:35;6.32;;;2.25;;
31270;SDS011;17904;47.420;9.310;2023-02-03T03:25:14;6.50;;;2.20;;
31270;SDS011;17904;47.420;9.310;2023-02-03T03:27:47;8.18;;;2.22;;
31270;SDS011;17904;47.420;9.310;2023-02-03T03:30:18;3.97;;;1.92;;
31270;SDS011;17904;47.420;9.310;2023-02-03T03:32:48;4.03;;;1.98;;
31270;SDS011;17904;47.420;9.310;2023-02-03T03:35:16;4.30;;;1.73;;
31270;SDS011;17904;47.420;9.310;2023-02-03T03:37:44;4.00;;;2.20;;
31270;SDS011;17904;47.420;9.310;2023-02-03T03:40:35;6.70;;;2.20;;
31270;SDS011;17904;47.420;9.310;2023-02-03T03:43:07;3.97;;;1.85;;
31270;SDS011;17904;47.420;9.310;2023-02-03T03:45:42;3.47;;;1.67;;
31270;SDS011;17904;47.420;9.310;2023-02-03T03:48:26;4.47;;;2.30;;
31270;SDS011;17904;47.420;9.310;2023-02-03T03:51:18;6.97;;;1.92;;
31270;SDS011;17904;47.420;9.310;2023-02-03T03:53:53;8.98;;;2.88;;
31270;SDS011;17904;47.420;9.310;2023-02-03T03:56:24;7.25;;;2.78;;
31270;SDS011;17904;47.420;9.310;2023-02-03T03:58:55;9.68;;;2.20;;
31270;SDS011;17904;47.420;9.310;2023-02-03T04:01:26;7.43;;;2.08;;
31270;SDS011;17904;47.420;9.310;2023-02-03T04:03:55;5.57;;;1.60;;
31270;SDS011;17904;47.420;9.310;2023-02-03T04:06:26;8.32;;;2.30;;
31270;SDS011;17904;47.420;9.310;2023-02-03T04:08:52;3.63;;;2.25;;
31270;SDS011;17904;47.420;9.310;2023-02-03T04:11:19;4.40;;;1.98;;
31270;SDS011;17904;47.420;9.310;2023-02-03T04:14:05;7.85;;;3.28;;
31270;SDS011;17904;47.420;9.310;2023-02-03T04:18:58;12.18;;;1.83;;
31270;SDS011;17904;47.420;9.310;2023-02-03T04:21:25;6.90;;;1.67;;
31270;SDS011;17904;47.420;9.310;2023-02-03T04:26:18;6.22;;;1.80;;
31270;SDS011;17904;47.420;9.310;2023-02-03T04:28:45;4.70;;;2.05;;
31270;SDS011;17904;47.420;9.310;2023-02-03T04:31:12;7.35;;;1.95;;
31270;SDS011;17904;47.420;9.310;2023-02-03T04:33:39;2.00;;;1.50;;
31270;SDS011;17904;47.420;9.310;2023-02-03T04:38:33;8.10;;;2.15;;
31270;SDS011;17904;47.420;9.310;2023-02-03T04:43:26;8.45;;;1.92;;
31270;SDS011;17904;47.420;9.310;2023-02-03T04:48:19;12.55;;;4.28;;
31270;SDS011;17904;47.420;9.310;2023-02-03T04:50:46;11.07;;;2.83;;
31270;SDS011;17904;47.420;9.310;2023-02-03T04:58:11;7.72;;;2.17;;
31270;SDS011;17904;47.420;9.310;2023-02-03T05:00:37;8.55;;;2.40;;
31270;SDS011;17904;47.420;9.310;2023-02-03T05:05:31;11.77;;;2.33;;
31270;SDS011;17904;47.420;9.310;2023-02-03T05:07:58;6.65;;;2.17;;
31270;SDS011;17904;47.420;9.310;2023-02-03T05:10:24;10.77;;;2.30;;
31270;SDS011;17904;47.420;9.310;2023-02-03T05:12:51;8.98;;;2.00;;
31270;SDS011;17904;47.420;9.310;2023-02-03T05:17:45;5.47;;;1.85;;
31270;SDS011;17904;47.420;9.310;2023-02-03T05:22:38;9.10;;;2.53;;
31270;SDS011;17904;47.420;9.310;2023-02-03T05:27:32;8.98;;;2.90;;
31270;SDS011;17904;47.420;9.310;2023-02-03T05:29:58;5.45;;;2.40;;
31270;SDS011;17904;47.420;9.310;2023-02-03T05:34:52;5.15;;;1.92;;
31270;SDS011;17904;47.420;9.310;2023-02-03T05:37:18;5.88;;;2.10;;
31270;SDS011;17904;47.420;9.310;2023-02-03T05:39:45;6.57;;;2.08;;
31270;SDS011;17904;47.420;9.310;2023-02-03T05:42:12;9.38;;;2.05;;
31270;SDS011;17904;47.420;9.310;2023-02-03T05:47:05;6.20;;;2.25;;
31270;SDS011;17904;47.420;9.310;2023-02-03T05:51:58;8.05;;;1.95;;
31270;SDS011;17904;47.420;9.310;2023-02-03T05:56:52;2.83;;;1.70;;
31270;SDS011;17904;47.420;9.310;2023-02-03T06:01:45;7.82;;;1.42;;
31270;SDS011;17904;47.420;9.310;2023-02-03T06:06:39;14.55;;;2.22;;
31270;SDS011;17904;47.420;9.310;2023-02-03T06:09:07;6.80;;;2.88;;
31270;SDS011;17904;47.420;9.310;2023-02-03T06:11:34;5.63;;;1.98;;
31270;SDS011;17904;47.420;9.310;2023-02-03T06:14:02;6.55;;;2.30;;
31270;SDS011;17904;47.420;9.310;2023-02-03T06:16:29;7.88;;;2.45;;
31270;SDS011;17904;47.420;9.310;2023-02-03T06:18:56;10.48;;;3.10;;
31270;SDS011;17904;47.420;9.310;2023-02-03T06:21:24;6.22;;;2.47;;
31270;SDS011;17904;47.420;9.310;2023-02-03T06:23:51;7.40;;;2.25;;
31270;SDS011;17904;47.420;9.310;2023-02-03T06:28:45;8.27;;;2.47;;
31270;SDS011;17904;47.420;9.310;2023-02-03T06:33:38;10.52;;;2.58;;
31270;SDS011;17904;47.420;9.310;2023-02-03T06:36:05;6.18;;;3.33;;
31270;SDS011;17904;47.420;9.310;2023-02-03T06:38:32;8.55;;;2.97;;
31270;SDS011;17904;47.420;9.310;2023-02-03T06:43:25;8.55;;;2.97;;
31270;SDS011;17904;47.420;9.310;2023-02-03T06:48:19;4.72;;;2.22;;
31270;SDS011;17904;47.420;9.310;2023-02-03T06:53:14;4.50;;;2.08;;
31270;SDS011;17904;47.420;9.310;2023-02-03T06:55:40;10.38;;;2.30;;
31270;SDS011;17904;47.420;9.310;2023-02-03T07:00:34;7.18;;;2.70;;
31270;SDS011;17904;47.420;9.310;2023-02-03T07:03:01;9.15;;;2.70;;
31270;SDS011;17904;47.420;9.310;2023-02-03T07:05:28;7.25;;;2.17;;
31270;SDS011;17904;47.420;9.310;2023-02-03T07:10:21;6.35;;;2.13;;
31270;SDS011;17904;47.420;9.310;2023-02-03T07:12:48;3.75;;;1.73;;
31270;SDS011;17904;47.420;9.310;2023-02-03T07:15:17;7.50;;;2.17;;
31270;SDS011;17904;47.420;9.310;2023-02-03T07:17:45;2.28;;;1.92;;
31270;SDS011;17904;47.420;9.310;2023-02-03T07:20:19;8.35;;;3.30;;
31270;SDS011;17904;47.420;9.310;2023-02-03T07:22:54;13.18;;;2.70;;
31270;SDS011;17904;47.420;9.310;2023-02-03T07:25:21;5.25;;;2.47;;
31270;SDS011;17904;47.420;9.310;2023-02-03T07:27:49;12.63;;;2.88;;
31270;SDS011;17904;47.420;9.310;2023-02-03T07:30:16;7.28;;;2.53;;
31270;SDS011;17904;47.420;9.310;2023-02-03T07:35:15;9.25;;;3.38;;
31270;SDS011;17904;47.420;9.310;2023-02-03T07:37:43;6.80;;;3.28;;
31270;SDS011;17904;47.420;9.310;2023-02-03T07:40:10;7.68;;;2.40;;
31270;SDS011;17904;47.420;9.310;2023-02-03T07:42:44;12.30;;;3.05;;
31270;SDS011;17904;47.420;9.310;2023-02-03T07:45:13;8.40;;;2.40;;
31270;SDS011;17904;47.420;9.310;2023-02-03T07:47:41;11.93;;;2.38;;
31270;SDS011;17904;47.420;9.310;2023-02-03T07:50:09;6.60;;;2.25;;
31270;SDS011;17904;47.420;9.310;2023-02-03T07:52:37;8.38;;;2.28;;
31270;SDS011;17904;47.420;9.310;2023-02-03T07:55:04;7.03;;;2.00;;
31270;SDS011;17904;47.420;9.310;2023-02-03T07:57:31;2.58;;;1.80;;
31270;SDS011;17904;47.420;9.310;2023-02-03T08:02:24;4.88;;;1.52;;
31270;SDS011;17904;47.420;9.310;2023-02-03T08:04:51;10.45;;;2.65;;
31270;SDS011;17904;47.420;9.310;2023-02-03T08:07:18;4.55;;;1.42;;
31270;SDS011;17904;47.420;9.310;2023-02-03T08:12:11;5.80;;;1.90;;
31270;SDS011;17904;47.420;9.310;2023-02-03T08:17:05;3.78;;;1.90;;
31270;SDS011;17904;47.420;9.310;2023-02-03T08:19:31;5.25;;;1.90;;
31270;SDS011;17904;47.420;9.310;2023-02-03T08:21:59;4.85;;;1.50;;
31270;SDS011;17904;47.420;9.310;2023-02-03T08:24:26;5.78;;;1.90;;
31270;SDS011;17904;47.420;9.310;2023-02-03T08:26:52;2.40;;;1.73;;
31270;SDS011;17904;47.420;9.310;2023-02-03T08:29:19;1.75;;;1.05;;
31270;SDS011;17904;47.420;9.310;2023-02-03T08:34:13;5.60;;;2.05;;
31270;SDS011;17904;47.420;9.310;2023-02-03T08:36:39;6.40;;;1.83;;
31270;SDS011;17904;47.420;9.310;2023-02-03T08:39:06;3.22;;;1.55;;
31270;SDS011;17904;47.420;9.310;2023-02-03T08:43:59;7.60;;;1.58;;
31270;SDS011;17904;47.420;9.310;2023-02-03T08:46:27;2.30;;;1.30;;
31270;SDS011;17904;47.420;9.310;2023-02-03T08:48:54;4.75;;;1.30;;
31270;SDS011;17904;47.420;9.310;2023-02-03T08:51:22;4.00;;;2.13;;
31270;SDS011;17904;47.420;9.310;2023-02-03T08:53:49;9.52;;;1.98;;
31270;SDS011;17904;47.420;9.310;2023-02-03T08:56:17;6.82;;;1.50;;
31270;SDS011;17904;47.420;9.310;2023-02-03T09:01:13;7.57;;;1.65;;
31270;SDS011;17904;47.420;9.310;2023-02-03T09:03:41;6.80;;;1.33;;
31270;SDS011;17904;47.420;9.310;2023-02-03T09:06:08;2.70;;;1.08;;
31270;SDS011;17904;47.420;9.310;2023-02-03T09:08:38;2.50;;;1.27;;
31270;SDS011;17904;47.420;9.310;2023-02-03T09:13:35;4.53;;;1.10;;
31270;SDS011;17904;47.420;9.310;2023-02-03T09:16:05;4.55;;;1.42;;
31270;SDS011;17904;47.420;9.310;2023-02-03T09:18:32;5.97;;;1.80;;
31270;SDS011;17904;47.420;9.310;2023-02-03T09:21:00;4.75;;;1.35;;
31270;SDS011;17904;47.420;9.310;2023-02-03T09:23:28;5.43;;;2.10;;
31270;SDS011;17904;47.420;9.310;2023-02-03T09:26:00;1.63;;;1.23;;
31270;SDS011;17904;47.420;9.310;2023-02-03T09:28:31;5.88;;;1.40;;
31270;SDS011;17904;47.420;9.310;2023-02-03T09:31:02;6.10;;;1.30;;
31270;SDS011;17904;47.420;9.310;2023-02-03T09:33:30;4.35;;;1.58;;
31270;SDS011;17904;47.420;9.310;2023-02-03T09:38:23;6.72;;;1.80;;
31270;SDS011;17904;47.420;9.310;2023-02-03T09:40:52;3.42;;;1.20;;
31270;SDS011;17904;47.420;9.310;2023-02-03T09:43:45;6.13;;;1.98;;
31270;SDS011;17904;47.420;9.310;2023-02-03T09:46:18;2.65;;;1.50;;
31270;SDS011;17904;47.420;9.310;2023-02-03T09:48:50;3.35;;;1.10;;
31270;SDS011;17904;47.420;9.310;2023-02-03T09:51:23;6.50;;;1.23;;
31270;SDS011;17904;47.420;9.310;2023-02-03T09:54:05;3.58;;;1.45;;
31270;SDS011;17904;47.420;9.310;2023-02-03T09:56:40;2.70;;;1.35;;
31270;SDS011;17904;47.420;9.310;2023-02-03T09:59:15;5.47;;;0.80;;
31270;SDS011;17904;47.420;9.310;2023-02-03T10:04:29;1.27;;;0.75;;
31270;SDS011;17904;47.420;9.310;2023-02-03T10:07:04;3.65;;;1.00;;
31270;SDS011;17904;47.420;9.310;2023-02-03T10:10:14;3.65;;;1.10;;
31270;SDS011;17904;47.420;9.310;2023-02-03T10:12:58;10.32;;;1.00;;
31270;SDS011;17904;47.420;9.310;2023-02-03T10:15:46;1.80;;;0.90;;
31270;SDS011;17904;47.420;9.310;2023-02-03T10:18:33;1.63;;;1.00;;
31270;SDS011;17904;47.420;9.310;2023-02-03T10:21:04;1.95;;;0.60;;
31270;SDS011;17904;47.420;9.310;2023-02-03T10:23:41;4.82;;;0.90;;
31270;SDS011;17904;47.420;9.310;2023-02-03T10:26:13;1.35;;;0.70;;
31270;SDS011;17904;47.420;9.310;2023-02-03T10:28:49;1.33;;;0.95;;
31270;SDS011;17904;47.420;9.310;2023-02-03T10:31:20;2.67;;;1.00;;
31270;SDS011;17904;47.420;9.310;2023-02-03T10:33:55;2.25;;;0.90;;
31270;SDS011;17904;47.420;9.310;2023-02-03T10:36:43;3.83;;;1.08;;
31270;SDS011;17904;47.420;9.310;2023-02-03T10:42:05;1.48;;;0.77;;
31270;SDS011;17904;47.420;9.310;2023-02-03T10:44:38;2.83;;;1.00;;
31270;SDS011;17904;47.420;9.310;2023-02-03T10:47:11;3.30;;;0.80;;
31270;SDS011;17904;47.420;9.310;2023-02-03T10:49:41;4.72;;;0.75;;
31270;SDS011;17904;47.420;9.310;2023-02-03T10:52:08;2.30;;;0.90;;
31270;SDS011;17904;47.420;9.310;2023-02-03T10:54:54;2.30;;;0.93;;
31270;SDS011;17904;47.420;9.310;2023-02-03T10:57:21;1.95;;;0.85;;
31270;SDS011;17904;47.420;9.310;2023-02-03T10:59:48;2.08;;;0.90;;
31270;SDS011;17904;47.420;9.310;2023-02-03T11:02:28;0.70;;;0.65;;
31270;SDS011;17904;47.420;9.310;2023-02-03T11:07:41;1.75;;;0.75;;
31270;SDS011;17904;47.420;9.310;2023-02-03T11:13:16;2.83;;;0.90;;
31270;SDS011;17904;47.420;9.310;2023-02-03T11:18:32;1.95;;;0.60;;
31270;SDS011;17904;47.420;9.310;2023-02-03T11:21:08;2.00;;;0.85;;
31270;SDS011;17904;47.420;9.310;2023-02-03T11:24:03;1.00;;;0.60;;
31270;SDS011;17904;47.420;9.310;2023-02-03T11:26:35;2.17;;;0.60;;
31270;SDS011;17904;47.420;9.310;2023-02-03T11:29:24;3.78;;;1.15;;
31270;SDS011;17904;47.420;9.310;2023-02-03T11:31:57;2.95;;;0.88;;
31270;SDS011;17904;47.420;9.310;2023-02-03T11:34:28;1.27;;;0.68;;
31270;SDS011;17904;47.420;9.310;2023-02-03T11:37:08;1.20;;;0.82;;
31270;SDS011;17904;47.420;9.310;2023-02-03T11:40:10;3.50;;;0.95;;
31270;SDS011;17904;47.420;9.310;2023-02-03T11:42:42;1.33;;;0.70;;
31270;SDS011;17904;47.420;9.310;2023-02-03T11:45:12;2.85;;;0.60;;
31270;SDS011;17904;47.420;9.310;2023-02-03T11:47:46;3.95;;;1.10;;
31270;SDS011;17904;47.420;9.310;2023-02-03T11:50:28;2.47;;;0.90;;
31270;SDS011;17904;47.420;9.310;2023-02-03T12:10:03;5.68;;;1.45;;
31270;SDS011;17904;47.420;9.310;2023-02-03T12:18:48;2.20;;;1.35;;
31270;SDS011;17904;47.420;9.310;2023-02-03T12:21:43;4.63;;;1.33;;
31270;SDS011;17904;47.420;9.310;2023-02-03T12:27:19;3.58;;;1.30;;
31270;SDS011;17904;47.420;9.310;2023-02-03T12:30:17;3.72;;;1.42;;
31270;SDS011;17904;47.420;9.310;2023-02-03T12:33:12;5.47;;;1.75;;
31270;SDS011;17904;47.420;9.310;2023-02-03T12:35:53;5.50;;;1.15;;
31270;SDS011;17904;47.420;9.310;2023-02-03T12:38:34;3.13;;;1.17;;
31270;SDS011;17904;47.420;9.310;2023-02-03T12:41:34;3.85;;;1.38;;
31270;SDS011;17904;47.420;9.310;2023-02-03T12:44:14;4.63;;;1.30;;
31270;SDS011;17904;47.420;9.310;2023-02-03T12:46:52;2.67;;;1.00;;
31270;SDS011;17904;47.420;9.310;2023-02-03T12:57:38;3.30;;;2.70;;
31270;SDS011;17904;47.420;9.310;2023-02-03T13:06:05;7.25;;;1.13;;
31270;SDS011;17904;47.420;9.310;2023-02-03T13:08:55;6.20;;;1.30;;
31270;SDS011;17904;47.420;9.310;2023-02-03T13:11:34;3.38;;;1.48;;
31270;SDS011;17904;47.420;9.310;2023-02-03T13:16:58;6.43;;;1.35;;
31270;SDS011;17904;47.420;9.310;2023-02-03T13:19:42;3.22;;;1.05;;
31270;SDS011;17904;47.420;9.310;2023-02-03T13:22:14;4.65;;;1.40;;
31270;SDS011;17904;47.420;9.310;2023-02-03T13:24:47;2.97;;;1.10;;
31270;SDS011;17904;47.420;9.310;2023-02-03T13:27:21;3.47;;;1.38;;
31270;SDS011;17904;47.420;9.310;2023-02-03T13:30:13;3.38;;;1.40;;
31270;SDS011;17904;47.420;9.310;2023-02-03T13:35:43;2.67;;;1.42;;
31270;SDS011;17904;47.420;9.310;2023-02-03T13:38:25;5.00;;;1.45;;
31270;SDS011;17904;47.420;9.310;2023-02-03T13:41:04;5.47;;;1.90;;
31270;SDS011;17904;47.420;9.310;2023-02-03T13:43:37;3.63;;;1.90;;
31270;SDS011;17904;47.420;9.310;2023-02-03T13:46:16;9.55;;;1.50;;
31270;SDS011;17904;47.420;9.310;2023-02-03T13:48:50;6.28;;;1.50;;
31270;SDS011;17904;47.420;9.310;2023-02-03T13:51:31;2.28;;;1.13;;
31270;SDS011;17904;47.420;9.310;2023-02-03T13:54:05;1.70;;;1.38;;
31270;SDS011;17904;47.420;9.310;2023-02-03T13:56:37;5.10;;;1.60;;
31270;SDS011;17904;47.420;9.310;2023-02-03T14:01:45;4.30;;;1.80;;
31270;SDS011;17904;47.420;9.310;2023-02-03T14:09:19;4.38;;;2.38;;
31270;SDS011;17904;47.420;9.310;2023-02-03T14:11:48;3.17;;;1.95;;
31270;SDS011;17904;47.420;9.310;2023-02-03T14:17:02;4.03;;;1.60;;
31270;SDS011;17904;47.420;9.310;2023-02-03T14:24:52;3.28;;;1.42;;
31270;SDS011;17904;47.420;9.310;2023-02-03T14:27:22;3.17;;;1.77;;
31270;SDS011;17904;47.420;9.310;2023-02-03T14:30:05;4.57;;;1.50;;
31270;SDS011;17904;47.420;9.310;2023-02-03T14:35:30;5.47;;;1.35;;
31270;SDS011;17904;47.420;9.310;2023-02-03T14:38:00;4.53;;;1.45;;
31270;SDS011;17904;47.420;9.310;2023-02-03T14:51:27;3.13;;;1.98;;
31270;SDS011;17904;47.420;9.310;2023-02-03T14:57:11;3.13;;;1.73;;
31270;SDS011;17904;47.420;9.310;2023-02-03T14:59:47;7.18;;;1.80;;
31270;SDS011;17904;47.420;9.310;2023-02-03T15:02:20;2.60;;;1.40;;
31270;SDS011;17904;47.420;9.310;2023-02-03T15:04:51;10.25;;;1.65;;
31270;SDS011;17904;47.420;9.310;2023-02-03T15:12:48;3.42;;;1.63;;
31270;SDS011;17904;47.420;9.310;2023-02-03T15:15:20;3.15;;;1.67;;
31270;SDS011;17904;47.420;9.310;2023-02-03T15:17:51;5.78;;;1.67;;
31270;SDS011;17904;47.420;9.310;2023-02-03T15:20:35;4.40;;;1.83;;
31270;SDS011;17904;47.420;9.310;2023-02-03T15:23:22;7.95;;;2.72;;
31270;SDS011;17904;47.420;9.310;2023-02-03T15:25:59;7.72;;;1.90;;
31270;SDS011;17904;47.420;9.310;2023-02-03T15:28:29;8.38;;;2.67;;
31270;SDS011;17904;47.420;9.310;2023-02-03T15:33:22;3.30;;;1.60;;
31270;SDS011;17904;47.420;9.310;2023-02-03T15:35:51;3.67;;;1.75;;
31270;SDS011;17904;47.420;9.310;2023-02-03T15:38:25;5.43;;;2.05;;
31270;SDS011;17904;47.420;9.310;2023-02-03T15:40:55;7.18;;;2.17;;
31270;SDS011;17904;47.420;9.310;2023-02-03T15:43:26;6.80;;;1.85;;
31270;SDS011;17904;47.420;9.310;2023-02-03T15:46:17;3.78;;;1.73;;
31270;SDS011;17904;47.420;9.310;2023-02-03T15:48:51;5.18;;;2.47;;
31270;SDS011;17904;47.420;9.310;2023-02-03T15:51:47;5.57;;;2.03;;
31270;SDS011;17904;47.420;9.310;2023-02-03T15:56:57;4.13;;;2.13;;
31270;SDS011;17904;47.420;9.310;2023-02-03T15:59:28;5.05;;;1.67;;
31270;SDS011;17904;47.420;9.310;2023-02-03T16:01:56;4.97;;;1.75;;
31270;SDS011;17904;47.420;9.310;2023-02-03T16:04:26;2.85;;;1.50;;
31270;SDS011;17904;47.420;9.310;2023-02-03T16:12:17;7.65;;;1.90;;
31270;SDS011;17904;47.420;9.310;2023-02-03T16:14:52;2.72;;;2.00;;
31270;SDS011;17904;47.420;9.310;2023-02-03T16:17:24;5.70;;;1.92;;
31270;SDS011;17904;47.420;9.310;2023-02-03T16:22:38;4.50;;;1.67;;
31270;SDS011;17904;47.420;9.310;2023-02-03T16:25:20;4.32;;;2.00;;
31270;SDS011;17904;47.420;9.310;2023-02-03T16:30:58;6.35;;;3.15;;
31270;SDS011;17904;47.420;9.310;2023-02-03T16:36:59;6.10;;;2.10;;
31270;SDS011;17904;47.420;9.310;2023-02-03T16:39:44;4.13;;;1.92;;
31270;SDS011;17904;47.420;9.310;2023-02-03T16:42:37;2.97;;;2.05;;
31270;SDS011;17904;47.420;9.310;2023-02-03T16:45:23;9.60;;;2.45;;
31270;SDS011;17904;47.420;9.310;2023-02-03T16:48:10;5.95;;;2.20;;
31270;SDS011;17904;47.420;9.310;2023-02-03T16:50:56;5.55;;;1.70;;
31270;SDS011;17904;47.420;9.310;2023-02-03T16:53:30;5.90;;;1.65;;
31270;SDS011;17904;47.420;9.310;2023-02-03T16:55:59;11.43;;;2.13;;
31270;SDS011;17904;47.420;9.310;2023-02-03T16:58:29;3.60;;;1.88;;
31270;SDS011;17904;47.420;9.310;2023-02-03T17:00:57;3.83;;;1.67;;
31270;SDS011;17904;47.420;9.310;2023-02-03T17:03:26;5.65;;;1.50;;
31270;SDS011;17904;47.420;9.310;2023-02-03T17:05:54;5.90;;;1.65;;
31270;SDS011;17904;47.420;9.310;2023-02-03T17:08:22;5.88;;;2.65;;
31270;SDS011;17904;47.420;9.310;2023-02-03T17:10:50;2.85;;;1.85;;
31270;SDS011;17904;47.420;9.310;2023-02-03T17:13:18;5.55;;;2.08;;
31270;SDS011;17904;47.420;9.310;2023-02-03T17:15:47;4.72;;;2.03;;
31270;SDS011;17904;47.420;9.310;2023-02-03T17:18:17;6.53;;;3.28;;
31270;SDS011;17904;47.420;9.310;2023-02-03T17:20:45;8.48;;;2.38;;
31270;SDS011;17904;47.420;9.310;2023-02-03T17:23:12;4.43;;;2.17;;
31270;SDS011;17904;47.420;9.310;2023-02-03T17:25:42;4.13;;;2.30;;
31270;SDS011;17904;47.420;9.310;2023-02-03T17:28:10;5.28;;;2.40;;
31270;SDS011;17904;47.420;9.310;2023-02-03T17:30:39;3.50;;;2.13;;
31270;SDS011;17904;47.420;9.310;2023-02-03T17:33:06;5.78;;;2.30;;
31270;SDS011;17904;47.420;9.310;2023-02-03T17:35:40;3.83;;;3.20;;
31270;SDS011;17904;47.420;9.310;2023-02-03T17:38:08;6.70;;;2.45;;
31270;SDS011;17904;47.420;9.310;2023-02-03T17:40:40;5.93;;;2.63;;
31270;SDS011;17904;47.420;9.310;2023-02-03T17:43:26;6.25;;;2.30;;
31270;SDS011;17904;47.420;9.310;2023-02-03T17:46:14;2.63;;;2.23;;
31270;SDS011;17904;47.420;9.310;2023-02-03T17:51:44;5.28;;;1.85;;
31270;SDS011;17904;47.420;9.310;2023-02-03T17:54:29;5.07;;;3.10;;
31270;SDS011;17904;47.420;9.310;2023-02-03T17:56:55;4.80;;;2.22;;
31270;SDS011;17904;47.420;9.310;2023-02-03T18:01:49;4.53;;;2.03;;
31270;SDS011;17904;47.420;9.310;2023-02-03T18:04:15;4.95;;;2.90;;
31270;SDS011;17904;47.420;9.310;2023-02-03T18:06:42;5.82;;;1.88;;
31270;SDS011;17904;47.420;9.310;2023-02-03T18:09:09;2.38;;;1.45;;
31270;SDS011;17904;47.420;9.310;2023-02-03T18:11:39;3.83;;;1.77;;
31270;SDS011;17904;47.420;9.310;2023-02-03T18:14:06;5.30;;;2.05;;
31270;SDS011;17904;47.420;9.310;2023-02-03T18:16:33;6.47;;;2.13;;
31270;SDS011;17904;47.420;9.310;2023-02-03T18:19:06;3.38;;;1.60;;
31270;SDS011;17904;47.420;9.310;2023-02-03T18:21:36;3.42;;;1.75;;
31270;SDS011;17904;47.420;9.310;2023-02-03T18:24:03;4.55;;;2.00;;
31270;SDS011;17904;47.420;9.310;2023-02-03T18:26:31;2.25;;;1.88;;
31270;SDS011;17904;47.420;9.310;2023-02-03T18:29:02;5.35;;;2.20;;
31270;SDS011;17904;47.420;9.310;2023-02-03T18:31:30;5.68;;;1.85;;
31270;SDS011;17904;47.420;9.310;2023-02-03T18:34:01;7.10;;;1.65;;
31270;SDS011;17904;47.420;9.310;2023-02-03T18:36:28;8.27;;;2.70;;
31270;SDS011;17904;47.420;9.310;2023-02-03T18:38:55;7.35;;;2.50;;
31270;SDS011;17904;47.420;9.310;2023-02-03T18:41:23;2.78;;;1.55;;
31270;SDS011;17904;47.420;9.310;2023-02-03T18:43:50;6.25;;;1.88;;
31270;SDS011;17904;47.420;9.310;2023-02-03T18:46:18;5.72;;;1.92;;
31270;SDS011;17904;47.420;9.310;2023-02-03T18:48:50;4.32;;;1.58;;
31270;SDS011;17904;47.420;9.310;2023-02-03T18:51:18;3.38;;;1.63;;
31270;SDS011;17904;47.420;9.310;2023-02-03T18:53:46;5.45;;;1.50;;
31270;SDS011;17904;47.420;9.310;2023-02-03T18:56:21;3.53;;;1.80;;
31270;SDS011;17904;47.420;9.310;2023-02-03T18:58:50;4.53;;;1.52;;
31270;SDS011;17904;47.420;9.310;2023-02-03T19:01:20;6.03;;;1.75;;
31270;SDS011;17904;47.420;9.310;2023-02-03T19:03:47;4.82;;;2.55;;
31270;SDS011;17904;47.420;9.310;2023-02-03T19:06:14;3.42;;;2.03;;
31270;SDS011;17904;47.420;9.310;2023-02-03T19:08:41;3.00;;;1.40;;
31270;SDS011;17904;47.420;9.310;2023-02-03T19:11:08;2.60;;;1.80;;
31270;SDS011;17904;47.420;9.310;2023-02-03T19:13:36;3.00;;;1.65;;
31270;SDS011;17904;47.420;9.310;2023-02-03T19:16:03;8.93;;;2.20;;
31270;SDS011;17904;47.420;9.310;2023-02-03T19:18:30;5.03;;;1.80;;
31270;SDS011;17904;47.420;9.310;2023-02-03T19:20:58;4.65;;;1.60;;
31270;SDS011;17904;47.420;9.310;2023-02-03T19:23:24;3.97;;;1.60;;